Time;durP1;ratioP1;P1;durP2;ratioP2;P2;SDS_P1;SDS_P2;PMS_P1;PMS_P2;Temp;Humidity;BMP_temperature;BMP_pressure;BME280_temperature;BME280_humidity;BME280_pressure;Samples;Min_cycle;Max_cycle;Signal;HPM_P1;HPM_P2
2023/08/13 00:00:00;;;;;;;12.48;1.70;;;;;;;;;;6132788;23;20215;-43
2023/08/13 00:02:30;;;;;;;9.73;1.85;;;;;;;;;;6117177;23;20025;-43
2023/08/13 00:05:00;;;;;;;9.57;2.00;;;;;;;;;;6123503;23;20056;-42
2023/08/13 00:07:28;;;;;;;10.27;1.70;;;;;;;;;;6133788;23;20397;-43
2023/08/13 00:09:55;;;;;;;10.85;1.42;;;;;;;;;;6121330;23;20021;-44
2023/08/13 00:12:23;;;;;;;12.95;2.65;;;;;;;;;;6128415;23;20088;-42
2023/08/13 00:14:51;;;;;;;11.68;1.65;;;;;;;;;;6121930;23;20010;-43
2023/08/13 00:17:20;;;;;;;16.48;1.95;;;;;;;;;;6128589;23;20014;-43
2023/08/13 00:19:47;;;;;;;12.60;1.67;;;;;;;;;;6122772;23;20327;-44
2023/08/13 00:22:16;;;;;;;10.65;1.70;;;;;;;;;;6125127;23;20315;-43
2023/08/13 00:24:45;;;;;;;9.63;1.80;;;;;;;;;;6128872;23;20745;-44
2023/08/13 00:27:13;;;;;;;8.38;1.77;;;;;;;;;;6129707;23;20407;-43
2023/08/13 00:29:41;;;;;;;13.70;1.98;;;;;;;;;;6116248;23;20017;-42
2023/08/13 00:32:08;;;;;;;10.13;1.37;;;;;;;;;;6125654;23;20021;-42
2023/08/13 00:34:38;;;;;;;10.45;2.22;;;;;;;;;;6120137;23;20013;-44
2023/08/13 00:37:05;;;;;;;10.35;1.40;;;;;;;;;;6129310;23;20018;-44
2023/08/13 00:39:33;;;;;;;10.75;1.70;;;;;;;;;;6117741;23;20022;-43
2023/08/13 00:42:01;;;;;;;9.05;1.50;;;;;;;;;;6122453;23;20101;-44
2023/08/13 00:44:28;;;;;;;9.50;2.27;;;;;;;;;;6137011;23;20669;-43
2023/08/13 00:46:56;;;;;;;9.48;1.10;;;;;;;;;;6129852;23;20013;-44
2023/08/13 00:49:24;;;;;;;7.03;1.60;;;;;;;;;;6119784;23;20446;-43
2023/08/13 00:51:53;;;;;;;19.08;2.15;;;;;;;;;;6121628;23;20029;-44
2023/08/13 00:54:22;;;;;;;10.93;1.55;;;;;;;;;;6121355;23;20048;-44
2023/08/13 00:56:51;;;;;;;7.57;1.50;;;;;;;;;;6123968;23;20040;-43
2023/08/13 00:59:19;;;;;;;11.93;1.90;;;;;;;;;;6116669;23;20024;-45
2023/08/13 01:01:47;;;;;;;12.30;2.35;;;;;;;;;;6125304;23;20017;-46
2023/08/13 01:04:15;;;;;;;9.73;1.90;;;;;;;;;;6125255;23;20017;-42
2023/08/13 01:06:46;;;;;;;10.65;1.98;;;;;;;;;;6123277;23;20032;-48
2023/08/13 01:09:20;;;;;;;9.67;1.70;;;;;;;;;;6121778;23;20028;-42
2023/08/13 01:11:52;;;;;;;8.43;1.73;;;;;;;;;;6119540;23;20025;-43
2023/08/13 01:14:24;;;;;;;7.85;1.67;;;;;;;;;;6097020;23;20028;-42
2023/08/13 01:16:53;;;;;;;8.90;1.90;;;;;;;;;;6123793;23;20045;-44
2023/08/13 01:19:20;;;;;;;7.75;1.52;;;;;;;;;;6122318;23;20575;-43
2023/08/13 01:21:48;;;;;;;9.80;1.63;;;;;;;;;;6085098;23;20024;-45
2023/08/13 01:24:17;;;;;;;9.52;1.75;;;;;;;;;;6125002;23;20025;-44
2023/08/13 01:26:50;;;;;;;6.30;1.52;;;;;;;;;;6128688;23;20662;-43
2023/08/13 01:29:21;;;;;;;8.73;2.05;;;;;;;;;;6119896;23;20077;-43
2023/08/13 01:31:51;;;;;;;11.98;1.55;;;;;;;;;;6107517;23;20013;-43
2023/08/13 01:34:19;;;;;;;11.17;1.90;;;;;;;;;;6129949;23;20014;-43
2023/08/13 01:36:47;;;;;;;11.30;2.47;;;;;;;;;;6124472;23;20421;-44
2023/08/13 01:39:15;;;;;;;9.40;1.70;;;;;;;;;;6125124;23;20013;-44
2023/08/13 01:41:50;;;;;;;13.30;2.05;;;;;;;;;;6123415;23;20311;-45
2023/08/13 01:44:18;;;;;;;10.80;2.42;;;;;;;;;;6132836;23;20017;-46
2023/08/13 01:46:46;;;;;;;10.10;1.87;;;;;;;;;;6114746;23;20064;-43
2023/08/13 01:49:14;;;;;;;10.32;1.73;;;;;;;;;;6129189;23;20049;-45
2023/08/13 01:51:41;;;;;;;8.35;1.88;;;;;;;;;;6131148;23;20014;-45
2023/08/13 01:54:09;;;;;;;13.15;1.70;;;;;;;;;;6129924;23;20017;-43
2023/08/13 01:56:37;;;;;;;10.77;1.67;;;;;;;;;;6129398;23;20550;-45
2023/08/13 01:59:06;;;;;;;9.80;1.83;;;;;;;;;;6126972;23;20022;-43
2023/08/13 02:01:33;;;;;;;9.95;2.08;;;;;;;;;;6132888;23;20444;-48
2023/08/13 02:04:01;;;;;;;9.23;1.60;;;;;;;;;;6128020;23;20025;-43
2023/08/13 02:06:33;;;;;;;10.00;1.75;;;;;;;;;;6124282;23;20021;-45
2023/08/13 02:09:00;;;;;;;11.90;2.67;;;;;;;;;;6136623;23;20576;-45
2023/08/13 02:11:28;;;;;;;8.77;1.13;;;;;;;;;;6123821;23;20023;-44
2023/08/13 02:13:55;;;;;;;11.85;2.38;;;;;;;;;;6126968;23;20014;-43
2023/08/13 02:16:25;;;;;;;8.32;1.70;;;;;;;;;;6129181;23;20322;-43
2023/08/13 02:18:52;;;;;;;11.77;1.58;;;;;;;;;;6132767;23;20017;-43
2023/08/13 02:21:20;;;;;;;9.55;1.95;;;;;;;;;;6149240;23;20265;-44
2023/08/13 02:23:48;;;;;;;13.83;2.13;;;;;;;;;;6131516;23;20064;-43
2023/08/13 02:26:16;;;;;;;10.73;1.92;;;;;;;;;;6123988;23;20024;-45
2023/08/13 02:28:45;;;;;;;11.60;1.63;;;;;;;;;;6138658;23;20021;-45
2023/08/13 02:31:13;;;;;;;8.88;1.50;;;;;;;;;;6120859;23;20028;-44
2023/08/13 02:33:42;;;;;;;12.00;1.80;;;;;;;;;;6130313;23;20018;-43
2023/08/13 02:36:09;;;;;;;9.67;1.77;;;;;;;;;;6112368;23;20024;-43
2023/08/13 02:38:37;;;;;;;10.40;2.05;;;;;;;;;;6157439;23;20018;-45
2023/08/13 02:41:05;;;;;;;11.50;1.98;;;;;;;;;;6124513;23;20371;-43
2023/08/13 02:43:34;;;;;;;11.82;2.05;;;;;;;;;;6128567;23;20041;-43
2023/08/13 02:46:01;;;;;;;13.70;2.03;;;;;;;;;;6125588;23;20104;-43
2023/08/13 02:48:29;;;;;;;14.13;2.20;;;;;;;;;;6117036;23;20045;-44
2023/08/13 02:50:58;;;;;;;8.27;1.60;;;;;;;;;;6123092;23;20481;-42
2023/08/13 02:53:26;;;;;;;13.07;1.98;;;;;;;;;;6136079;23;20040;-42
2023/08/13 02:55:54;;;;;;;9.20;1.83;;;;;;;;;;6151930;23;20021;-46
2023/08/13 02:58:21;;;;;;;10.82;1.90;;;;;;;;;;6136195;23;20397;-43
2023/08/13 03:00:49;;;;;;;11.47;1.93;;;;;;;;;;6108239;23;20014;-45
2023/08/13 03:03:16;;;;;;;10.23;1.60;;;;;;;;;;6137591;23;20442;-43
2023/08/13 03:05:44;;;;;;;12.10;1.55;;;;;;;;;;6131022;23;20021;-44
2023/08/13 03:08:13;;;;;;;10.38;1.88;;;;;;;;;;6132289;23;20017;-43
2023/08/13 03:10:41;;;;;;;13.80;2.33;;;;;;;;;;6127976;23;20539;-46
2023/08/13 03:13:09;;;;;;;9.67;2.00;;;;;;;;;;6139641;23;20272;-44
2023/08/13 03:15:36;;;;;;;8.20;1.27;;;;;;;;;;6120587;23;20021;-44
2023/08/13 03:18:04;;;;;;;15.13;1.42;;;;;;;;;;6130753;23;20022;-44
2023/08/13 03:20:33;;;;;;;9.23;2.00;;;;;;;;;;6119130;23;20049;-42
2023/08/13 03:23:00;;;;;;;9.43;2.15;;;;;;;;;;6129994;23;20028;-42
2023/08/13 03:25:29;;;;;;;17.37;2.47;;;;;;;;;;6136879;23;20014;-43
2023/08/13 03:27:57;;;;;;;8.23;1.60;;;;;;;;;;6126097;23;20577;-43
2023/08/13 03:30:25;;;;;;;10.63;1.55;;;;;;;;;;6131506;23;20429;-44
2023/08/13 03:32:53;;;;;;;11.52;2.45;;;;;;;;;;6122070;23;20017;-43
2023/08/13 03:35:20;;;;;;;11.00;1.77;;;;;;;;;;6133797;23;20024;-43
2023/08/13 03:37:48;;;;;;;11.60;1.77;;;;;;;;;;6120515;23;20525;-43
2023/08/13 03:40:16;;;;;;;10.05;1.92;;;;;;;;;;6133808;23;20017;-44
2023/08/13 03:42:45;;;;;;;8.45;1.75;;;;;;;;;;6124939;23;20018;-43
2023/08/13 03:45:12;;;;;;;7.65;1.52;;;;;;;;;;6154764;23;20017;-44
2023/08/13 03:47:40;;;;;;;12.68;2.45;;;;;;;;;;6125642;23;20027;-43
2023/08/13 03:50:08;;;;;;;9.20;1.73;;;;;;;;;;6123555;23;20014;-43
2023/08/13 03:52:36;;;;;;;8.60;2.13;;;;;;;;;;6122379;23;20052;-43
2023/08/13 03:55:04;;;;;;;9.82;1.27;;;;;;;;;;6136746;23;20096;-46
2023/08/13 03:57:31;;;;;;;10.10;2.25;;;;;;;;;;6126295;23;20146;-45
2023/08/13 04:00:01;;;;;;;9.50;2.03;;;;;;;;;;6134518;23;20022;-47
2023/08/13 04:02:32;;;;;;;10.17;2.07;;;;;;;;;;6120150;23;20017;-45
2023/08/13 04:05:04;;;;;;;10.55;1.48;;;;;;;;;;6123290;23;20041;-45
2023/08/13 04:07:32;;;;;;;7.43;1.77;;;;;;;;;;6131645;23;20013;-43
2023/08/13 04:10:00;;;;;;;7.07;1.70;;;;;;;;;;6132312;23;20423;-43
2023/08/13 04:12:29;;;;;;;9.05;1.70;;;;;;;;;;6128658;23;20025;-43
2023/08/13 04:14:57;;;;;;;10.83;2.07;;;;;;;;;;6124152;23;20017;-44
2023/08/13 04:17:26;;;;;;;11.82;1.60;;;;;;;;;;6135144;23;20024;-43
2023/08/13 04:19:54;;;;;;;7.97;1.50;;;;;;;;;;6117988;23;20027;-46
2023/08/13 04:22:39;;;;;;;8.82;1.77;;;;;;;;;;6136899;23;20021;-44
2023/08/13 04:25:08;;;;;;;7.70;1.58;;;;;;;;;;6123157;23;20028;-43
2023/08/13 04:27:35;;;;;;;11.20;1.97;;;;;;;;;;6131923;23;20444;-44
2023/08/13 04:30:03;;;;;;;11.40;1.63;;;;;;;;;;6130323;23;20017;-44
2023/08/13 04:32:32;;;;;;;7.78;1.42;;;;;;;;;;6134603;23;20021;-43
2023/08/13 04:35:02;;;;;;;7.20;1.30;;;;;;;;;;6131915;23;20027;-43
2023/08/13 04:37:30;;;;;;;11.13;1.60;;;;;;;;;;6128272;23;20022;-44
2023/08/13 04:39:58;;;;;;;7.40;1.10;;;;;;;;;;6129357;23;20550;-43
2023/08/13 04:42:27;;;;;;;8.30;2.00;;;;;;;;;;6118270;23;20101;-43
2023/08/13 04:44:55;;;;;;;8.70;1.95;;;;;;;;;;6133658;23;20790;-45
2023/08/13 04:47:23;;;;;;;9.80;1.52;;;;;;;;;;6121367;23;20018;-43
2023/08/13 04:49:52;;;;;;;7.72;1.17;;;;;;;;;;6131017;23;20020;-43
2023/08/13 04:52:19;;;;;;;10.53;2.00;;;;;;;;;;6118088;23;20476;-45
2023/08/13 04:54:48;;;;;;;7.68;1.55;;;;;;;;;;6130040;23;20454;-43
2023/08/13 04:57:16;;;;;;;7.97;2.33;;;;;;;;;;6123464;23;20813;-43
2023/08/13 04:59:43;;;;;;;9.00;1.73;;;;;;;;;;6127902;23;20098;-45
2023/08/13 05:02:11;;;;;;;6.25;1.38;;;;;;;;;;6121836;23;20017;-43
2023/08/13 05:04:39;;;;;;;12.77;1.60;;;;;;;;;;6124942;23;20021;-44
2023/08/13 05:07:08;;;;;;;9.27;1.75;;;;;;;;;;6113607;23;20022;-43
2023/08/13 05:09:36;;;;;;;6.45;1.85;;;;;;;;;;6126357;23;20068;-43
2023/08/13 05:12:05;;;;;;;8.90;2.05;;;;;;;;;;6122903;23;20053;-43
2023/08/13 05:14:33;;;;;;;9.25;1.55;;;;;;;;;;6123946;23;20064;-44
2023/08/13 05:17:00;;;;;;;7.47;1.70;;;;;;;;;;6122820;23;20018;-43
2023/08/13 05:19:28;;;;;;;10.25;1.80;;;;;;;;;;6121287;23;20017;-42
2023/08/13 05:21:56;;;;;;;10.50;1.73;;;;;;;;;;6122543;23;20351;-43
2023/08/13 05:24:25;;;;;;;8.13;2.17;;;;;;;;;;6131723;23;20037;-45
2023/08/13 05:26:53;;;;;;;7.10;1.08;;;;;;;;;;6119449;23;20020;-45
2023/08/13 05:29:24;;;;;;;8.40;1.40;;;;;;;;;;6129835;23;20017;-43
2023/08/13 05:31:53;;;;;;;9.98;1.58;;;;;;;;;;6130572;23;20415;-44
2023/08/13 05:34:21;;;;;;;9.45;1.33;;;;;;;;;;6118076;23;20623;-44
2023/08/13 05:36:48;;;;;;;10.45;1.73;;;;;;;;;;6128218;23;20385;-43
2023/08/13 05:39:16;;;;;;;8.55;1.60;;;;;;;;;;6119900;23;20021;-42
2023/08/13 05:41:45;;;;;;;8.43;1.40;;;;;;;;;;6126234;23;20080;-42
2023/08/13 05:44:13;;;;;;;7.40;1.27;;;;;;;;;;6119308;23;20017;-43
2023/08/13 05:46:41;;;;;;;10.80;1.88;;;;;;;;;;6127308;23;20017;-43
2023/08/13 05:49:09;;;;;;;9.82;1.92;;;;;;;;;;6117500;23;20018;-42
2023/08/13 05:51:36;;;;;;;10.70;1.90;;;;;;;;;;6126381;23;20021;-44
2023/08/13 05:54:04;;;;;;;10.80;2.77;;;;;;;;;;6111390;23;20542;-44
2023/08/13 05:56:32;;;;;;;7.97;1.58;;;;;;;;;;6132077;23;20048;-44
2023/08/13 05:59:01;;;;;;;11.32;1.42;;;;;;;;;;6118029;23;20014;-44
2023/08/13 06:01:35;;;;;;;7.22;1.40;;;;;;;;;;6131551;23;20909;-42
2023/08/13 06:04:02;;;;;;;11.48;1.85;;;;;;;;;;6124653;23;20020;-42
2023/08/13 06:06:30;;;;;;;5.30;1.20;;;;;;;;;;6120011;23;20100;-46
2023/08/13 06:08:58;;;;;;;8.43;1.73;;;;;;;;;;6121333;23;20510;-49
2023/08/13 06:11:25;;;;;;;4.82;1.10;;;;;;;;;;6129661;23;20024;-44
2023/08/13 06:13:54;;;;;;;6.50;0.98;;;;;;;;;;6122973;23;20017;-46
2023/08/13 06:16:23;;;;;;;5.88;1.10;;;;;;;;;;6129901;23;20113;-43
2023/08/13 06:18:50;;;;;;;6.93;1.27;;;;;;;;;;6115326;23;20471;-45
2023/08/13 06:21:19;;;;;;;8.52;1.20;;;;;;;;;;6127628;23;20455;-44
2023/08/13 06:23:49;;;;;;;7.70;1.00;;;;;;;;;;6130051;23;20036;-45
2023/08/13 06:26:16;;;;;;;6.72;1.20;;;;;;;;;;6116602;23;20013;-43
2023/08/13 06:28:44;;;;;;;6.78;1.15;;;;;;;;;;6129960;23;20021;-43
2023/08/13 06:31:12;;;;;;;7.17;1.30;;;;;;;;;;6116119;23;20428;-44
2023/08/13 06:34:00;;;;;;;9.93;2.55;;;;;;;;;;6131390;23;20024;-43
2023/08/13 06:36:28;;;;;;;7.03;0.98;;;;;;;;;;6115935;23;20013;-44
2023/08/13 06:38:56;;;;;;;4.85;0.90;;;;;;;;;;6130264;23;20043;-43
2023/08/13 06:41:23;;;;;;;6.55;0.90;;;;;;;;;;6118373;23;20112;-42
2023/08/13 06:43:53;;;;;;;5.73;0.70;;;;;;;;;;6125075;23;20547;-45
2023/08/13 06:46:22;;;;;;;6.53;1.13;;;;;;;;;;6146379;23;20014;-44
2023/08/13 06:48:49;;;;;;;6.88;1.55;;;;;;;;;;6120157;23;20366;-43
2023/08/13 06:51:18;;;;;;;6.10;1.23;;;;;;;;;;6128547;23;20509;-44
2023/08/13 06:53:46;;;;;;;6.72;1.20;;;;;;;;;;6114825;23;20338;-42
2023/08/13 06:56:14;;;;;;;7.17;1.50;;;;;;;;;;6154333;23;20104;-46
2023/08/13 06:58:41;;;;;;;5.15;1.00;;;;;;;;;;6117036;23;20018;-44
2023/08/13 07:01:09;;;;;;;4.93;1.00;;;;;;;;;;6123129;23;20017;-42
2023/08/13 07:03:37;;;;;;;3.70;0.70;;;;;;;;;;6110978;23;20427;-45
2023/08/13 07:06:06;;;;;;;7.32;1.00;;;;;;;;;;6128595;23;20029;-44
2023/08/13 07:08:35;;;;;;;8.17;1.40;;;;;;;;;;6118975;23;20352;-43
2023/08/13 07:11:02;;;;;;;6.88;1.08;;;;;;;;;;6126777;23;20025;-43
2023/08/13 07:13:31;;;;;;;5.70;1.00;;;;;;;;;;6117116;23;20075;-42
2023/08/13 07:15:58;;;;;;;7.70;1.20;;;;;;;;;;6125716;23;20373;-44
2023/08/13 07:18:30;;;;;;;8.18;1.40;;;;;;;;;;6122727;23;20504;-47
2023/08/13 07:20:58;;;;;;;4.40;1.30;;;;;;;;;;6124207;23;20041;-46
2023/08/13 07:23:26;;;;;;;5.05;1.23;;;;;;;;;;6122680;23;20017;-44
2023/08/13 07:25:55;;;;;;;5.90;1.17;;;;;;;;;;6132413;23;20025;-46
2023/08/13 07:28:23;;;;;;;5.22;0.98;;;;;;;;;;6124418;23;20047;-44
2023/08/13 07:30:50;;;;;;;6.38;1.17;;;;;;;;;;6126588;23;20112;-42
2023/08/13 07:33:18;;;;;;;5.77;1.30;;;;;;;;;;6128501;23;20021;-43
2023/08/13 07:35:46;;;;;;;4.50;0.90;;;;;;;;;;6127610;23;20017;-42
2023/08/13 07:38:16;;;;;;;4.75;1.20;;;;;;;;;;6126438;23;20013;-43
2023/08/13 07:40:44;;;;;;;7.50;1.58;;;;;;;;;;6121656;23;20105;-43
2023/08/13 07:43:13;;;;;;;7.90;1.10;;;;;;;;;;6122419;23;20039;-43
2023/08/13 07:45:41;;;;;;;8.80;1.17;;;;;;;;;;6117739;23;20060;-46
2023/08/13 07:48:09;;;;;;;6.15;0.70;;;;;;;;;;6125162;23;20456;-44
2023/08/13 07:50:37;;;;;;;4.28;1.10;;;;;;;;;;6116679;23;20018;-43
2023/08/13 07:53:05;;;;;;;6.25;1.17;;;;;;;;;;6126535;23;20021;-44
2023/08/13 07:55:33;;;;;;;6.47;1.05;;;;;;;;;;6124460;23;20014;-42
2023/08/13 07:58:00;;;;;;;4.33;0.83;;;;;;;;;;6126338;23;20482;-42
2023/08/13 08:00:30;;;;;;;5.05;0.63;;;;;;;;;;6119919;23;20014;-43
2023/08/13 08:02:58;;;;;;;8.43;1.17;;;;;;;;;;6131514;23;20024;-43
2023/08/13 08:05:27;;;;;;;3.65;0.90;;;;;;;;;;6118139;23;20547;-43
2023/08/13 08:07:54;;;;;;;5.13;1.27;;;;;;;;;;6131751;23;20097;-43
2023/08/13 08:10:23;;;;;;;6.13;0.90;;;;;;;;;;6118059;23;20449;-42
2023/08/13 08:12:51;;;;;;;5.47;0.88;;;;;;;;;;6128999;23;20017;-42
2023/08/13 08:15:21;;;;;;;6.75;1.27;;;;;;;;;;6117294;23;20096;-42
2023/08/13 08:17:50;;;;;;;5.55;1.15;;;;;;;;;;6127726;23;20101;-44
2023/08/13 08:20:18;;;;;;;6.28;1.25;;;;;;;;;;6122240;23;20018;-42
2023/08/13 08:22:45;;;;;;;3.90;0.80;;;;;;;;;;6128304;23;20025;-45
2023/08/13 08:25:13;;;;;;;5.35;0.60;;;;;;;;;;6118968;23;20024;-43
2023/08/13 08:27:41;;;;;;;7.25;1.33;;;;;;;;;;6147628;23;20584;-44
2023/08/13 08:30:09;;;;;;;6.10;1.15;;;;;;;;;;6115282;23;20044;-44
2023/08/13 08:32:38;;;;;;;4.55;0.80;;;;;;;;;;6124621;23;20021;-42
2023/08/13 08:35:08;;;;;;;4.80;1.17;;;;;;;;;;6124411;23;20397;-42
2023/08/13 08:37:35;;;;;;;7.38;1.15;;;;;;;;;;6116657;23;20018;-42
2023/08/13 08:40:03;;;;;;;7.28;1.40;;;;;;;;;;6128779;23;20017;-45
2023/08/13 08:42:31;;;;;;;8.88;1.25;;;;;;;;;;6116903;23;20092;-43
2023/08/13 08:44:59;;;;;;;5.95;1.20;;;;;;;;;;6128942;23;20013;-43
2023/08/13 08:47:27;;;;;;;4.17;0.90;;;;;;;;;;6121043;23;20014;-45
2023/08/13 08:49:55;;;;;;;4.57;0.85;;;;;;;;;;6124518;23;20021;-42
2023/08/13 08:52:24;;;;;;;6.20;1.48;;;;;;;;;;6111382;23;20322;-42
2023/08/13 08:54:52;;;;;;;4.03;0.57;;;;;;;;;;6126222;23;20032;-43
2023/08/13 08:57:19;;;;;;;8.60;0.95;;;;;;;;;;6112324;23;20017;-43
2023/08/13 08:59:47;;;;;;;5.53;0.83;;;;;;;;;;6122901;23;20716;-43
2023/08/13 09:02:16;;;;;;;7.05;0.93;;;;;;;;;;6126461;23;20340;-44
2023/08/13 09:04:46;;;;;;;3.60;0.85;;;;;;;;;;6124387;23;20017;-43
2023/08/13 09:07:14;;;;;;;4.13;0.60;;;;;;;;;;6122401;23;20022;-45
2023/08/13 09:09:46;;;;;;;4.03;0.60;;;;;;;;;;6133540;23;20444;-43
2023/08/13 09:12:14;;;;;;;6.47;0.70;;;;;;;;;;6118515;23;20464;-42
2023/08/13 09:14:44;;;;;;;6.00;1.17;;;;;;;;;;6128053;23;20101;-44
2023/08/13 09:17:13;;;;;;;5.90;1.30;;;;;;;;;;6112617;23;20032;-43
2023/08/13 09:19:41;;;;;;;6.10;1.10;;;;;;;;;;6124330;23;20026;-44
2023/08/13 09:22:10;;;;;;;6.55;1.13;;;;;;;;;;6121184;23;20040;-43
2023/08/13 09:24:38;;;;;;;9.17;1.20;;;;;;;;;;6119866;23;20021;-43
2023/08/13 09:27:07;;;;;;;5.97;1.00;;;;;;;;;;6130952;23;20028;-43
2023/08/13 09:29:36;;;;;;;8.18;1.05;;;;;;;;;;6116591;23;20084;-44
2023/08/13 09:32:04;;;;;;;5.80;1.02;;;;;;;;;;6128376;23;20049;-44
2023/08/13 09:34:33;;;;;;;10.60;1.50;;;;;;;;;;6106205;23;20033;-43
2023/08/13 09:37:01;;;;;;;5.70;1.10;;;;;;;;;;6123575;23;20017;-45
2023/08/13 09:39:30;;;;;;;6.20;1.23;;;;;;;;;;6118949;23;20121;-45
2023/08/13 09:41:59;;;;;;;8.32;1.50;;;;;;;;;;6126484;23;20022;-43
2023/08/13 09:44:29;;;;;;;7.22;1.40;;;;;;;;;;6121811;23;20018;-43
2023/08/13 09:47:00;;;;;;;6.28;1.50;;;;;;;;;;6127150;23;20024;-45
2023/08/13 09:49:29;;;;;;;5.13;1.00;;;;;;;;;;6114716;23;20028;-44
2023/08/13 09:52:01;;;;;;;8.23;1.65;;;;;;;;;;6122745;23;20570;-44
2023/08/13 09:54:35;;;;;;;7.65;1.25;;;;;;;;;;6123382;23;20064;-44
2023/08/13 09:57:04;;;;;;;6.13;1.00;;;;;;;;;;6120750;23;20551;-44
2023/08/13 09:59:34;;;;;;;7.10;1.20;;;;;;;;;;6113517;23;20026;-44
2023/08/13 10:02:05;;;;;;;5.27;1.10;;;;;;;;;;6142816;23;20024;-44
2023/08/13 10:04:34;;;;;;;6.53;1.00;;;;;;;;;;6119395;23;20035;-47
2023/08/13 10:07:04;;;;;;;8.82;1.08;;;;;;;;;;6116217;23;20530;-43
2023/08/13 10:09:33;;;;;;;9.80;2.15;;;;;;;;;;6125809;23;20017;-44
2023/08/13 10:12:01;;;;;;;8.82;1.05;;;;;;;;;;6116120;23;20319;-44
2023/08/13 10:14:29;;;;;;;5.40;0.90;;;;;;;;;;6122289;23;20036;-46
2023/08/13 10:17:00;;;;;;;6.80;0.82;;;;;;;;;;6138839;23;20127;-42
2023/08/13 10:19:29;;;;;;;8.25;1.13;;;;;;;;;;6127324;23;20028;-43
2023/08/13 10:21:57;;;;;;;4.70;0.88;;;;;;;;;;6103524;23;20018;-48
2023/08/13 10:24:24;;;;;;;7.88;1.08;;;;;;;;;;6124309;23;20053;-47
2023/08/13 10:26:53;;;;;;;9.03;0.90;;;;;;;;;;6112457;23;20021;-49
2023/08/13 10:29:21;;;;;;;4.28;0.77;;;;;;;;;;6131747;23;20033;-46
2023/08/13 10:31:59;;;;;;;5.10;0.80;;;;;;;;;;6128894;23;20009;-43
2023/08/13 10:34:38;;;;;;;6.97;1.05;;;;;;;;;;6139581;23;20026;-43
2023/08/13 10:37:14;;;;;;;8.07;0.90;;;;;;;;;;6124992;23;20096;-44
2023/08/13 10:39:43;;;;;;;5.37;0.67;;;;;;;;;;6115227;23;20017;-45
2023/08/13 10:42:29;;;;;;;4.80;0.88;;;;;;;;;;6123554;23;20024;-45
2023/08/13 10:45:02;;;;;;;4.65;0.80;;;;;;;;;;6123670;23;20022;-43
2023/08/13 10:47:39;;;;;;;4.57;0.88;;;;;;;;;;6114122;23;20240;-46
2023/08/13 10:50:07;;;;;;;5.32;1.05;;;;;;;;;;6122025;23;20080;-43
2023/08/13 10:52:35;;;;;;;4.73;0.83;;;;;;;;;;6111213;23;20045;-43
2023/08/13 10:55:02;;;;;;;4.38;0.90;;;;;;;;;;6123231;23;20029;-45
2023/08/13 10:57:32;;;;;;;6.38;1.35;;;;;;;;;;6113017;23;20018;-47
2023/08/13 11:00:04;;;;;;;3.78;0.82;;;;;;;;;;6124618;23;20017;-47
2023/08/13 11:02:33;;;;;;;6.38;1.35;;;;;;;;;;6126114;23;20036;-45
2023/08/13 11:05:02;;;;;;;3.63;0.47;;;;;;;;;;6113439;23;20221;-43
2023/08/13 11:07:31;;;;;;;6.68;0.82;;;;;;;;;;6127734;23;20018;-43
2023/08/13 11:09:59;;;;;;;5.88;1.10;;;;;;;;;;6124512;23;20017;-48
2023/08/13 11:12:27;;;;;;;6.47;0.88;;;;;;;;;;6122889;23;20076;-45
2023/08/13 11:14:55;;;;;;;4.40;0.60;;;;;;;;;;6124688;23;20408;-42
2023/08/13 11:17:23;;;;;;;4.93;0.77;;;;;;;;;;6130207;23;20044;-42
2023/08/13 11:19:50;;;;;;;6.40;0.90;;;;;;;;;;6117951;23;20013;-43
2023/08/13 11:22:19;;;;;;;3.55;0.90;;;;;;;;;;6125385;23;20021;-42
2023/08/13 11:24:47;;;;;;;3.67;0.50;;;;;;;;;;6139958;23;20710;-45
2023/08/13 11:27:15;;;;;;;4.97;0.90;;;;;;;;;;6126588;23;20108;-44
2023/08/13 11:29:43;;;;;;;6.17;1.20;;;;;;;;;;6120013;23;20273;-43
2023/08/13 11:32:10;;;;;;;4.63;0.80;;;;;;;;;;6127126;23;20024;-47
2023/08/13 11:34:38;;;;;;;4.75;0.80;;;;;;;;;;6114152;23;20025;-46
2023/08/13 11:37:06;;;;;;;4.18;0.80;;;;;;;;;;6126284;23;20080;-46
2023/08/13 11:39:35;;;;;;;6.55;0.80;;;;;;;;;;6120414;23;20466;-44
2023/08/13 11:42:09;;;;;;;4.17;0.60;;;;;;;;;;6126958;23;20024;-44
2023/08/13 11:44:37;;;;;;;7.60;1.00;;;;;;;;;;6121199;23;20041;-43
2023/08/13 11:47:07;;;;;;;7.07;1.00;;;;;;;;;;6126581;23;20037;-44
2023/08/13 11:49:40;;;;;;;5.88;0.75;;;;;;;;;;6122374;23;20022;-45
2023/08/13 11:52:10;;;;;;;4.07;1.00;;;;;;;;;;6125000;23;20018;-43
2023/08/13 11:54:40;;;;;;;5.33;0.83;;;;;;;;;;6126481;23;20024;-43
2023/08/13 11:57:08;;;;;;;3.88;0.80;;;;;;;;;;6121192;23;20514;-47
2023/08/13 11:59:36;;;;;;;4.90;0.90;;;;;;;;;;6127839;23;20104;-46
2023/08/13 12:02:03;;;;;;;4.03;1.02;;;;;;;;;;6112232;23;20472;-48
2023/08/13 12:04:32;;;;;;;5.32;0.70;;;;;;;;;;6126407;23;20021;-48
2023/08/13 12:07:07;;;;;;;3.10;0.73;;;;;;;;;;6121720;23;20014;-48
2023/08/13 12:09:35;;;;;;;4.20;0.77;;;;;;;;;;6126686;23;20017;-46
2023/08/13 12:12:04;;;;;;;3.35;0.80;;;;;;;;;;6103597;23;20017;-46
2023/08/13 12:14:32;;;;;;;5.22;1.10;;;;;;;;;;6124598;23;20809;-46
2023/08/13 12:17:00;;;;;;;4.80;0.60;;;;;;;;;;6126415;23;20024;-46
2023/08/13 12:19:27;;;;;;;3.87;0.83;;;;;;;;;;6124075;23;20014;-43
2023/08/13 12:21:55;;;;;;;4.65;0.43;;;;;;;;;;6120157;23;20022;-46
2023/08/13 12:24:22;;;;;;;3.78;0.60;;;;;;;;;;6122632;23;20022;-46
2023/08/13 12:26:50;;;;;;;3.63;0.68;;;;;;;;;;6124163;23;20154;-45
2023/08/13 12:29:19;;;;;;;4.88;0.70;;;;;;;;;;6132496;23;20037;-45
2023/08/13 12:31:51;;;;;;;4.50;0.70;;;;;;;;;;6128306;23;20491;-47
2023/08/13 12:34:19;;;;;;;4.38;0.65;;;;;;;;;;6118227;23;20014;-43
2023/08/13 12:36:46;;;;;;;4.40;0.70;;;;;;;;;;6151490;23;20672;-44
2023/08/13 12:39:15;;;;;;;4.60;0.70;;;;;;;;;;6117079;23;20022;-44
2023/08/13 12:41:42;;;;;;;3.33;1.10;;;;;;;;;;6129800;23;20037;-46
2023/08/13 12:44:10;;;;;;;5.70;1.30;;;;;;;;;;6121362;23;20362;-43
2023/08/13 12:46:39;;;;;;;3.53;0.60;;;;;;;;;;6120403;23;20077;-44
2023/08/13 12:49:07;;;;;;;4.32;1.40;;;;;;;;;;6121370;23;20493;-44
2023/08/13 12:51:35;;;;;;;3.85;0.95;;;;;;;;;;6128360;23;20388;-44
2023/08/13 12:54:03;;;;;;;5.18;1.10;;;;;;;;;;6120655;23;20483;-45
2023/08/13 12:56:30;;;;;;;5.97;0.90;;;;;;;;;;6133141;23;20029;-44
2023/08/13 12:58:58;;;;;;;4.00;0.80;;;;;;;;;;6116399;23;20018;-44
2023/08/13 13:01:27;;;;;;;5.03;1.08;;;;;;;;;;6127327;23;20157;-43
2023/08/13 13:03:56;;;;;;;5.88;1.10;;;;;;;;;;6123365;23;20021;-48
2023/08/13 13:06:23;;;;;;;4.07;1.00;;;;;;;;;;6110510;23;20020;-46
2023/08/13 13:08:51;;;;;;;5.70;0.73;;;;;;;;;;6117156;23;20021;-46
2023/08/13 13:11:18;;;;;;;7.05;1.20;;;;;;;;;;6129460;23;20504;-44
2023/08/13 13:13:46;;;;;;;5.70;1.17;;;;;;;;;;6116077;23;20009;-43
2023/08/13 13:16:14;;;;;;;4.97;0.95;;;;;;;;;;6121086;23;20021;-44
2023/08/13 13:18:43;;;;;;;5.88;0.80;;;;;;;;;;6112692;23;20040;-46
2023/08/13 13:21:12;;;;;;;4.53;0.87;;;;;;;;;;6110466;23;20017;-45
2023/08/13 13:23:40;;;;;;;4.20;0.70;;;;;;;;;;6113641;23;20017;-45
2023/08/13 13:26:08;;;;;;;4.07;1.17;;;;;;;;;;6124462;23;20072;-44
2023/08/13 13:28:37;;;;;;;4.18;0.77;;;;;;;;;;6113880;23;20027;-46
2023/08/13 13:31:05;;;;;;;4.70;0.68;;;;;;;;;;6127544;23;20544;-48
2023/08/13 13:33:33;;;;;;;7.20;1.00;;;;;;;;;;6120585;23;20013;-43
2023/08/13 13:36:01;;;;;;;5.15;0.90;;;;;;;;;;6122026;23;20028;-48
2023/08/13 13:38:30;;;;;;;3.53;0.60;;;;;;;;;;6117039;23;20021;-44
2023/08/13 13:40:58;;;;;;;4.38;1.13;;;;;;;;;;6125876;23;20025;-44
2023/08/13 13:43:26;;;;;;;4.20;1.27;;;;;;;;;;6116371;23;20021;-43
2023/08/13 13:45:54;;;;;;;5.03;0.70;;;;;;;;;;6127432;23;20017;-44
2023/08/13 13:48:21;;;;;;;3.33;0.70;;;;;;;;;;6114374;23;20239;-46
2023/08/13 13:50:49;;;;;;;3.72;0.90;;;;;;;;;;6121622;23;20024;-43
2023/08/13 13:53:16;;;;;;;5.78;0.90;;;;;;;;;;6116986;23;20017;-44
2023/08/13 13:55:48;;;;;;;5.95;1.20;;;;;;;;;;6115273;23;20717;-45
2023/08/13 13:58:16;;;;;;;4.00;0.90;;;;;;;;;;6113907;23;20032;-44
2023/08/13 14:00:44;;;;;;;4.05;0.80;;;;;;;;;;6121453;23;20021;-44
2023/08/13 14:03:12;;;;;;;6.07;1.08;;;;;;;;;;6125069;23;20022;-46
2023/08/13 14:05:40;;;;;;;5.47;1.15;;;;;;;;;;6117809;23;20448;-50
2023/08/13 14:08:08;;;;;;;3.95;0.73;;;;;;;;;;6120301;23;20471;-44
2023/08/13 14:10:35;;;;;;;5.20;0.77;;;;;;;;;;6124057;23;20228;-44
2023/08/13 14:13:04;;;;;;;5.00;0.80;;;;;;;;;;6125204;23;20061;-45
2023/08/13 14:15:32;;;;;;;4.65;0.90;;;;;;;;;;6141431;23;20024;-46
2023/08/13 14:18:00;;;;;;;4.68;0.90;;;;;;;;;;6128134;23;20021;-43
2023/08/13 14:20:34;;;;;;;6.03;1.23;;;;;;;;;;6127346;23;20325;-44
2023/08/13 14:23:04;;;;;;;5.63;0.90;;;;;;;;;;6138099;23;20475;-45
2023/08/13 14:25:32;;;;;;;5.60;1.42;;;;;;;;;;6150921;23;20052;-46
2023/08/13 14:27:59;;;;;;;4.82;1.30;;;;;;;;;;6119233;23;20338;-45
2023/08/13 14:30:29;;;;;;;6.90;1.60;;;;;;;;;;6132897;23;20032;-46
2023/08/13 14:32:57;;;;;;;6.40;0.90;;;;;;;;;;6118447;23;20325;-46
2023/08/13 14:35:24;;;;;;;5.27;1.40;;;;;;;;;;6150712;23;20440;-48
2023/08/13 14:37:52;;;;;;;5.88;1.35;;;;;;;;;;6118761;23;20104;-44
2023/08/13 14:40:21;;;;;;;5.93;1.30;;;;;;;;;;6129705;23;20250;-46
2023/08/13 14:42:49;;;;;;;8.90;1.58;;;;;;;;;;6119806;23;20025;-43
2023/08/13 14:45:17;;;;;;;5.40;1.02;;;;;;;;;;6121286;23;20092;-45
2023/08/13 14:47:46;;;;;;;6.30;1.43;;;;;;;;;;6137359;23;20033;-42